sensor_id;sensor_type;location;lat;lon;timestamp;P1;durP1;ratioP1;P2;durP2;ratioP2
9657;SDS011;4867;48.112;11.622;2024-01-11T00:00:41;59.13;;;32.17;;
9657;SDS011;4867;48.112;11.622;2024-01-11T00:03:08;55.37;;;31.00;;
9657;SDS011;4867;48.112;11.622;2024-01-11T00:05:36;53.73;;;31.23;;
9657;SDS011;4867;48.112;11.622;2024-01-11T00:08:04;53.90;;;31.87;;
9657;SDS011;4867;48.112;11.622;2024-01-11T00:10:31;52.93;;;31.73;;
9657;SDS011;4867;48.112;11.622;2024-01-11T00:12:58;53.23;;;31.63;;
9657;SDS011;4867;48.112;11.622;2024-01-11T00:15:26;51.47;;;30.00;;
9657;SDS011;4867;48.112;11.622;2024-01-11T00:17:53;51.80;;;31.90;;
9657;SDS011;4867;48.112;11.622;2024-01-11T00:20:21;50.60;;;30.07;;
9657;SDS011;4867;48.112;11.622;2024-01-11T00:22:49;144.80;;;39.70;;
9657;SDS011;4867;48.112;11.622;2024-01-11T00:25:16;71.43;;;33.87;;
9657;SDS011;4867;48.112;11.622;2024-01-11T00:27:44;67.47;;;33.43;;
9657;SDS011;4867;48.112;11.622;2024-01-11T00:30:12;61.70;;;32.33;;
9657;SDS011;4867;48.112;11.622;2024-01-11T00:32:39;63.33;;;33.80;;
9657;SDS011;4867;48.112;11.622;2024-01-11T00:35:07;61.40;;;33.87;;
9657;SDS011;4867;48.112;11.622;2024-01-11T00:37:34;57.77;;;32.73;;
9657;SDS011;4867;48.112;11.622;2024-01-11T00:40:02;59.27;;;32.37;;
9657;SDS011;4867;48.112;11.622;2024-01-11T00:42:30;54.17;;;31.17;;
9657;SDS011;4867;48.112;11.622;2024-01-11T00:44:57;55.50;;;30.67;;
9657;SDS011;4867;48.112;11.622;2024-01-11T00:47:24;53.00;;;29.87;;
9657;SDS011;4867;48.112;11.622;2024-01-11T00:49:52;55.27;;;31.30;;
9657;SDS011;4867;48.112;11.622;2024-01-11T00:52:19;54.37;;;30.03;;
9657;SDS011;4867;48.112;11.622;2024-01-11T00:54:47;49.27;;;28.17;;
9657;SDS011;4867;48.112;11.622;2024-01-11T00:57:14;56.50;;;26.67;;
9657;SDS011;4867;48.112;11.622;2024-01-11T00:59:41;62.73;;;29.43;;
9657;SDS011;4867;48.112;11.622;2024-01-11T01:02:09;77.70;;;30.33;;
9657;SDS011;4867;48.112;11.622;2024-01-11T01:04:37;56.63;;;29.57;;
9657;SDS011;4867;48.112;11.622;2024-01-11T01:07:05;80.03;;;33.03;;
9657;SDS011;4867;48.112;11.622;2024-01-11T01:09:33;81.60;;;34.50;;
9657;SDS011;4867;48.112;11.622;2024-01-11T01:12:01;65.33;;;34.43;;
9657;SDS011;4867;48.112;11.622;2024-01-11T01:14:29;54.40;;;31.53;;
9657;SDS011;4867;48.112;11.622;2024-01-11T01:16:56;71.63;;;34.70;;
9657;SDS011;4867;48.112;11.622;2024-01-11T01:19:24;59.00;;;33.23;;
9657;SDS011;4867;48.112;11.622;2024-01-11T01:21:51;58.63;;;32.97;;
9657;SDS011;4867;48.112;11.622;2024-01-11T01:24:19;76.63;;;33.60;;
9657;SDS011;4867;48.112;11.622;2024-01-11T01:26:46;107.20;;;36.27;;
9657;SDS011;4867;48.112;11.622;2024-01-11T01:29:14;69.37;;;34.17;;
9657;SDS011;4867;48.112;11.622;2024-01-11T01:31:41;79.17;;;34.13;;
9657;SDS011;4867;48.112;11.622;2024-01-11T01:34:08;62.67;;;32.73;;
9657;SDS011;4867;48.112;11.622;2024-01-11T01:36:36;86.33;;;35.33;;
9657;SDS011;4867;48.112;11.622;2024-01-11T01:39:03;62.80;;;33.03;;
9657;SDS011;4867;48.112;11.622;2024-01-11T01:41:31;117.10;;;35.03;;
9657;SDS011;4867;48.112;11.622;2024-01-11T01:43:59;65.30;;;33.53;;
9657;SDS011;4867;48.112;11.622;2024-01-11T01:46:26;55.83;;;32.37;;
9657;SDS011;4867;48.112;11.622;2024-01-11T01:48:56;68.03;;;32.13;;
9657;SDS011;4867;48.112;11.622;2024-01-11T01:51:25;57.03;;;31.20;;
9657;SDS011;4867;48.112;11.622;2024-01-11T01:53:55;67.40;;;34.20;;
9657;SDS011;4867;48.112;11.622;2024-01-11T01:56:24;72.17;;;32.30;;
9657;SDS011;4867;48.112;11.622;2024-01-11T01:58:51;54.97;;;30.77;;
9657;SDS011;4867;48.112;11.622;2024-01-11T02:01:21;56.17;;;31.97;;
9657;SDS011;4867;48.112;11.622;2024-01-11T02:03:50;56.33;;;32.03;;
9657;SDS011;4867;48.112;11.622;2024-01-11T02:06:20;59.63;;;32.60;;
9657;SDS011;4867;48.112;11.622;2024-01-11T02:08:51;63.97;;;33.30;;
9657;SDS011;4867;48.112;11.622;2024-01-11T02:11:22;55.80;;;30.13;;
9657;SDS011;4867;48.112;11.622;2024-01-11T02:13:50;51.43;;;28.67;;
9657;SDS011;4867;48.112;11.622;2024-01-11T02:16:17;49.53;;;29.07;;
9657;SDS011;4867;48.112;11.622;2024-01-11T02:18:46;52.70;;;29.27;;
9657;SDS011;4867;48.112;11.622;2024-01-11T02:21:14;55.07;;;31.57;;
9657;SDS011;4867;48.112;11.622;2024-01-11T02:23:44;68.13;;;30.37;;
9657;SDS011;4867;48.112;11.622;2024-01-11T02:26:22;63.10;;;30.20;;
9657;SDS011;4867;48.112;11.622;2024-01-11T02:28:49;50.17;;;29.10;;
9657;SDS011;4867;48.112;11.622;2024-01-11T02:31:17;50.50;;;29.20;;
9657;SDS011;4867;48.112;11.622;2024-01-11T02:33:44;53.63;;;30.27;;
9657;SDS011;4867;48.112;11.622;2024-01-11T02:36:12;58.97;;;30.90;;
9657;SDS011;4867;48.112;11.622;2024-01-11T02:38:40;68.13;;;33.10;;
9657;SDS011;4867;48.112;11.622;2024-01-11T02:41:09;71.07;;;31.27;;
9657;SDS011;4867;48.112;11.622;2024-01-11T02:43:38;108.63;;;33.57;;
9657;SDS011;4867;48.112;11.622;2024-01-11T02:46:06;65.17;;;30.77;;
9657;SDS011;4867;48.112;11.622;2024-01-11T02:48:33;96.27;;;33.53;;
9657;SDS011;4867;48.112;11.622;2024-01-11T02:51:00;75.50;;;30.10;;
9657;SDS011;4867;48.112;11.622;2024-01-11T02:53:28;70.60;;;30.37;;
9657;SDS011;4867;48.112;11.622;2024-01-11T02:56:01;79.93;;;29.27;;
9657;SDS011;4867;48.112;11.622;2024-01-11T02:58:29;65.13;;;31.53;;
9657;SDS011;4867;48.112;11.622;2024-01-11T03:00:57;56.53;;;30.70;;
9657;SDS011;4867;48.112;11.622;2024-01-11T03:03:24;63.70;;;31.90;;
9657;SDS011;4867;48.112;11.622;2024-01-11T03:05:52;51.70;;;29.47;;
9657;SDS011;4867;48.112;11.622;2024-01-11T03:08:20;54.77;;;30.97;;
9657;SDS011;4867;48.112;11.622;2024-01-11T03:10:47;63.20;;;30.63;;
9657;SDS011;4867;48.112;11.622;2024-01-11T03:13:15;50.87;;;29.30;;
9657;SDS011;4867;48.112;11.622;2024-01-11T03:15:42;71.60;;;29.77;;
9657;SDS011;4867;48.112;11.622;2024-01-11T03:18:10;52.57;;;28.60;;
9657;SDS011;4867;48.112;11.622;2024-01-11T03:20:37;71.63;;;29.10;;
9657;SDS011;4867;48.112;11.622;2024-01-11T03:23:05;89.97;;;29.57;;
9657;SDS011;4867;48.112;11.622;2024-01-11T03:25:32;65.53;;;29.90;;
9657;SDS011;4867;48.112;11.622;2024-01-11T03:28:00;66.30;;;28.73;;
9657;SDS011;4867;48.112;11.622;2024-01-11T03:30:27;70.80;;;30.83;;
9657;SDS011;4867;48.112;11.622;2024-01-11T03:32:55;97.80;;;35.37;;
9657;SDS011;4867;48.112;11.622;2024-01-11T03:35:22;48.20;;;28.03;;
9657;SDS011;4867;48.112;11.622;2024-01-11T03:37:50;61.03;;;29.90;;
9657;SDS011;4867;48.112;11.622;2024-01-11T03:40:18;68.63;;;30.73;;
9657;SDS011;4867;48.112;11.622;2024-01-11T03:42:45;111.73;;;31.87;;
9657;SDS011;4867;48.112;11.622;2024-01-11T03:45:13;55.47;;;29.03;;
9657;SDS011;4867;48.112;11.622;2024-01-11T03:47:40;76.10;;;31.50;;
9657;SDS011;4867;48.112;11.622;2024-01-11T03:50:09;62.40;;;30.63;;
9657;SDS011;4867;48.112;11.622;2024-01-11T03:52:36;71.07;;;32.00;;
9657;SDS011;4867;48.112;11.622;2024-01-11T03:55:04;64.10;;;31.53;;
9657;SDS011;4867;48.112;11.622;2024-01-11T03:57:31;63.37;;;32.13;;
9657;SDS011;4867;48.112;11.622;2024-01-11T03:59:59;59.43;;;30.87;;
9657;SDS011;4867;48.112;11.622;2024-01-11T04:02:26;75.57;;;33.07;;
9657;SDS011;4867;48.112;11.622;2024-01-11T04:04:54;89.80;;;35.43;;
9657;SDS011;4867;48.112;11.622;2024-01-11T04:07:21;75.83;;;33.53;;
9657;SDS011;4867;48.112;11.622;2024-01-11T04:09:53;75.70;;;34.40;;
9657;SDS011;4867;48.112;11.622;2024-01-11T04:12:21;62.20;;;30.33;;
9657;SDS011;4867;48.112;11.622;2024-01-11T04:14:48;64.27;;;32.53;;
9657;SDS011;4867;48.112;11.622;2024-01-11T04:17:16;63.37;;;32.47;;
9657;SDS011;4867;48.112;11.622;2024-01-11T04:19:43;54.43;;;30.33;;
9657;SDS011;4867;48.112;11.622;2024-01-11T04:22:10;55.70;;;29.93;;
9657;SDS011;4867;48.112;11.622;2024-01-11T04:24:38;48.67;;;28.63;;
9657;SDS011;4867;48.112;11.622;2024-01-11T04:27:05;48.10;;;28.33;;
9657;SDS011;4867;48.112;11.622;2024-01-11T04:29:32;50.87;;;29.53;;
9657;SDS011;4867;48.112;11.622;2024-01-11T04:32:00;54.47;;;30.33;;
9657;SDS011;4867;48.112;11.622;2024-01-11T04:34:29;44.50;;;26.53;;
9657;SDS011;4867;48.112;11.622;2024-01-11T04:36:57;47.70;;;28.77;;
9657;SDS011;4867;48.112;11.622;2024-01-11T04:39:24;48.97;;;29.37;;
9657;SDS011;4867;48.112;11.622;2024-01-11T04:41:52;47.53;;;28.33;;
9657;SDS011;4867;48.112;11.622;2024-01-11T04:44:19;55.03;;;30.17;;
9657;SDS011;4867;48.112;11.622;2024-01-11T04:46:47;54.47;;;29.93;;
9657;SDS011;4867;48.112;11.622;2024-01-11T04:49:14;55.07;;;29.60;;
9657;SDS011;4867;48.112;11.622;2024-01-11T04:51:42;48.77;;;28.97;;
9657;SDS011;4867;48.112;11.622;2024-01-11T04:54:09;51.20;;;28.27;;
9657;SDS011;4867;48.112;11.622;2024-01-11T04:56:36;50.70;;;29.50;;
9657;SDS011;4867;48.112;11.622;2024-01-11T04:59:04;58.23;;;30.77;;
9657;SDS011;4867;48.112;11.622;2024-01-11T05:01:32;53.83;;;29.50;;
9657;SDS011;4867;48.112;11.622;2024-01-11T05:03:59;59.10;;;30.57;;
9657;SDS011;4867;48.112;11.622;2024-01-11T05:06:27;64.77;;;32.53;;
9657;SDS011;4867;48.112;11.622;2024-01-11T05:08:54;53.23;;;29.60;;
9657;SDS011;4867;48.112;11.622;2024-01-11T05:11:22;84.77;;;32.47;;
9657;SDS011;4867;48.112;11.622;2024-01-11T05:13:53;63.90;;;31.83;;
9657;SDS011;4867;48.112;11.622;2024-01-11T05:16:24;50.43;;;29.53;;
9657;SDS011;4867;48.112;11.622;2024-01-11T05:18:55;52.83;;;28.90;;
9657;SDS011;4867;48.112;11.622;2024-01-11T05:21:24;57.83;;;27.97;;
9657;SDS011;4867;48.112;11.622;2024-01-11T05:23:53;60.87;;;28.70;;
9657;SDS011;4867;48.112;11.622;2024-01-11T05:26:20;54.80;;;28.90;;
9657;SDS011;4867;48.112;11.622;2024-01-11T05:28:48;51.93;;;30.20;;
9657;SDS011;4867;48.112;11.622;2024-01-11T05:31:15;52.60;;;30.33;;
9657;SDS011;4867;48.112;11.622;2024-01-11T05:33:44;81.53;;;31.07;;
9657;SDS011;4867;48.112;11.622;2024-01-11T05:36:12;74.00;;;32.00;;
9657;SDS011;4867;48.112;11.622;2024-01-11T05:38:40;49.43;;;28.70;;
9657;SDS011;4867;48.112;11.622;2024-01-11T05:41:07;48.70;;;27.67;;
9657;SDS011;4867;48.112;11.622;2024-01-11T05:43:37;43.20;;;25.63;;
9657;SDS011;4867;48.112;11.622;2024-01-11T05:46:04;55.03;;;26.30;;
9657;SDS011;4867;48.112;11.622;2024-01-11T05:48:32;46.90;;;26.57;;
9657;SDS011;4867;48.112;11.622;2024-01-11T05:50:59;98.60;;;26.60;;
9657;SDS011;4867;48.112;11.622;2024-01-11T05:53:27;68.67;;;27.17;;
9657;SDS011;4867;48.112;11.622;2024-01-11T05:55:54;84.50;;;29.87;;
9657;SDS011;4867;48.112;11.622;2024-01-11T05:58:22;56.23;;;26.10;;
9657;SDS011;4867;48.112;11.622;2024-01-11T06:00:49;105.60;;;28.90;;
9657;SDS011;4867;48.112;11.622;2024-01-11T06:03:17;69.70;;;26.27;;
9657;SDS011;4867;48.112;11.622;2024-01-11T06:05:44;126.33;;;26.37;;
9657;SDS011;4867;48.112;11.622;2024-01-11T06:08:12;155.60;;;26.97;;
9657;SDS011;4867;48.112;11.622;2024-01-11T06:10:39;108.90;;;27.47;;
9657;SDS011;4867;48.112;11.622;2024-01-11T06:13:07;67.80;;;26.10;;
9657;SDS011;4867;48.112;11.622;2024-01-11T06:15:36;89.17;;;28.23;;
9657;SDS011;4867;48.112;11.622;2024-01-11T06:18:03;99.50;;;25.70;;
9657;SDS011;4867;48.112;11.622;2024-01-11T06:20:31;147.07;;;26.20;;
9657;SDS011;4867;48.112;11.622;2024-01-11T06:22:59;121.13;;;25.37;;
9657;SDS011;4867;48.112;11.622;2024-01-11T06:25:26;78.13;;;24.50;;
9657;SDS011;4867;48.112;11.622;2024-01-11T06:27:54;90.13;;;26.73;;
9657;SDS011;4867;48.112;11.622;2024-01-11T06:30:22;257.40;;;32.43;;
9657;SDS011;4867;48.112;11.622;2024-01-11T06:32:49;105.40;;;25.93;;
9657;SDS011;4867;48.112;11.622;2024-01-11T06:35:17;47.63;;;25.73;;
9657;SDS011;4867;48.112;11.622;2024-01-11T06:37:44;50.50;;;25.30;;
9657;SDS011;4867;48.112;11.622;2024-01-11T06:40:12;57.13;;;26.53;;
9657;SDS011;4867;48.112;11.622;2024-01-11T06:42:39;63.43;;;24.50;;
9657;SDS011;4867;48.112;11.622;2024-01-11T06:45:07;53.53;;;23.90;;
9657;SDS011;4867;48.112;11.622;2024-01-11T06:47:35;50.83;;;24.53;;
9657;SDS011;4867;48.112;11.622;2024-01-11T06:50:03;40.13;;;24.33;;
9657;SDS011;4867;48.112;11.622;2024-01-11T06:52:31;39.30;;;23.63;;
9657;SDS011;4867;48.112;11.622;2024-01-11T06:54:58;40.10;;;23.70;;
9657;SDS011;4867;48.112;11.622;2024-01-11T06:57:27;35.87;;;22.27;;
9657;SDS011;4867;48.112;11.622;2024-01-11T06:59:55;31.47;;;21.47;;
9657;SDS011;4867;48.112;11.622;2024-01-11T07:02:23;29.77;;;20.53;;
9657;SDS011;4867;48.112;11.622;2024-01-11T07:04:50;30.73;;;21.50;;
9657;SDS011;4867;48.112;11.622;2024-01-11T07:07:18;29.80;;;20.37;;
9657;SDS011;4867;48.112;11.622;2024-01-11T07:09:45;31.17;;;21.33;;
9657;SDS011;4867;48.112;11.622;2024-01-11T07:12:13;31.07;;;21.47;;
9657;SDS011;4867;48.112;11.622;2024-01-11T07:14:42;30.83;;;20.87;;
9657;SDS011;4867;48.112;11.622;2024-01-11T07:17:09;31.23;;;20.60;;
9657;SDS011;4867;48.112;11.622;2024-01-11T07:19:36;29.40;;;19.73;;
9657;SDS011;4867;48.112;11.622;2024-01-11T07:22:04;31.23;;;21.57;;
9657;SDS011;4867;48.112;11.622;2024-01-11T07:24:31;30.57;;;20.93;;
9657;SDS011;4867;48.112;11.622;2024-01-11T07:27:04;33.67;;;23.13;;
9657;SDS011;4867;48.112;11.622;2024-01-11T07:29:35;33.50;;;22.50;;
9657;SDS011;4867;48.112;11.622;2024-01-11T07:32:03;33.97;;;22.33;;
9657;SDS011;4867;48.112;11.622;2024-01-11T07:34:31;35.23;;;23.27;;
9657;SDS011;4867;48.112;11.622;2024-01-11T07:36:59;29.37;;;20.80;;
9657;SDS011;4867;48.112;11.622;2024-01-11T07:39:27;31.20;;;21.33;;
9657;SDS011;4867;48.112;11.622;2024-01-11T07:41:54;32.67;;;20.93;;
9657;SDS011;4867;48.112;11.622;2024-01-11T07:44:21;35.73;;;23.17;;
9657;SDS011;4867;48.112;11.622;2024-01-11T07:46:49;36.40;;;22.70;;
9657;SDS011;4867;48.112;11.622;2024-01-11T07:49:21;37.47;;;22.37;;
9657;SDS011;4867;48.112;11.622;2024-01-11T07:51:49;40.23;;;23.53;;
9657;SDS011;4867;48.112;11.622;2024-01-11T07:54:16;37.73;;;24.13;;
9657;SDS011;4867;48.112;11.622;2024-01-11T07:56:43;43.87;;;25.33;;
9657;SDS011;4867;48.112;11.622;2024-01-11T07:59:11;39.93;;;23.90;;
9657;SDS011;4867;48.112;11.622;2024-01-11T08:01:41;37.93;;;24.23;;
9657;SDS011;4867;48.112;11.622;2024-01-11T08:04:08;39.47;;;23.93;;
9657;SDS011;4867;48.112;11.622;2024-01-11T08:06:36;39.40;;;24.93;;
9657;SDS011;4867;48.112;11.622;2024-01-11T08:09:04;34.13;;;23.20;;
9657;SDS011;4867;48.112;11.622;2024-01-11T08:11:32;45.57;;;31.13;;
9657;SDS011;4867;48.112;11.622;2024-01-11T08:14:04;80.33;;;53.10;;
9657;SDS011;4867;48.112;11.622;2024-01-11T08:16:33;42.70;;;29.30;;
9657;SDS011;4867;48.112;11.622;2024-01-11T08:19:00;49.97;;;32.67;;
9657;SDS011;4867;48.112;11.622;2024-01-11T08:21:28;44.10;;;27.50;;
9657;SDS011;4867;48.112;11.622;2024-01-11T08:23:55;44.73;;;27.67;;
9657;SDS011;4867;48.112;11.622;2024-01-11T08:26:28;45.93;;;27.63;;
9657;SDS011;4867;48.112;11.622;2024-01-11T08:28:57;46.13;;;28.27;;
9657;SDS011;4867;48.112;11.622;2024-01-11T08:31:25;48.47;;;28.67;;
9657;SDS011;4867;48.112;11.622;2024-01-11T08:33:52;48.07;;;28.43;;
9657;SDS011;4867;48.112;11.622;2024-01-11T08:36:20;47.80;;;29.00;;
9657;SDS011;4867;48.112;11.622;2024-01-11T08:38:48;48.40;;;29.70;;
9657;SDS011;4867;48.112;11.622;2024-01-11T08:41:16;52.97;;;29.93;;
9657;SDS011;4867;48.112;11.622;2024-01-11T08:43:44;49.60;;;30.43;;
9657;SDS011;4867;48.112;11.622;2024-01-11T08:46:11;52.07;;;29.77;;
9657;SDS011;4867;48.112;11.622;2024-01-11T08:48:38;51.30;;;29.13;;
9657;SDS011;4867;48.112;11.622;2024-01-11T08:51:06;50.27;;;30.37;;
9657;SDS011;4867;48.112;11.622;2024-01-11T08:53:33;55.77;;;32.03;;
9657;SDS011;4867;48.112;11.622;2024-01-11T08:56:01;51.00;;;30.33;;
9657;SDS011;4867;48.112;11.622;2024-01-11T08:58:28;46.00;;;29.43;;
9657;SDS011;4867;48.112;11.622;2024-01-11T09:00:56;50.87;;;30.63;;
9657;SDS011;4867;48.112;11.622;2024-01-11T09:03:23;48.67;;;29.67;;
9657;SDS011;4867;48.112;11.622;2024-01-11T09:05:51;49.13;;;29.73;;
9657;SDS011;4867;48.112;11.622;2024-01-11T09:08:19;51.33;;;31.03;;
9657;SDS011;4867;48.112;11.622;2024-01-11T09:10:46;48.23;;;29.03;;
9657;SDS011;4867;48.112;11.622;2024-01-11T09:13:13;44.47;;;27.47;;
9657;SDS011;4867;48.112;11.622;2024-01-11T09:15:42;41.70;;;28.10;;
9657;SDS011;4867;48.112;11.622;2024-01-11T09:18:09;44.63;;;28.43;;
9657;SDS011;4867;48.112;11.622;2024-01-11T09:20:37;43.87;;;28.07;;
9657;SDS011;4867;48.112;11.622;2024-01-11T09:23:05;44.27;;;29.43;;
9657;SDS011;4867;48.112;11.622;2024-01-11T09:25:33;48.23;;;30.97;;
9657;SDS011;4867;48.112;11.622;2024-01-11T09:28:00;44.93;;;30.10;;
9657;SDS011;4867;48.112;11.622;2024-01-11T09:30:27;43.93;;;30.90;;
9657;SDS011;4867;48.112;11.622;2024-01-11T09:32:55;43.67;;;29.30;;
9657;SDS011;4867;48.112;11.622;2024-01-11T09:35:23;41.93;;;29.13;;
9657;SDS011;4867;48.112;11.622;2024-01-11T09:37:50;45.87;;;31.33;;
9657;SDS011;4867;48.112;11.622;2024-01-11T09:40:18;45.70;;;31.10;;
9657;SDS011;4867;48.112;11.622;2024-01-11T09:42:46;49.73;;;32.50;;
9657;SDS011;4867;48.112;11.622;2024-01-11T09:45:14;41.93;;;29.63;;
9657;SDS011;4867;48.112;11.622;2024-01-11T09:47:44;40.87;;;30.00;;
9657;SDS011;4867;48.112;11.622;2024-01-11T09:50:16;44.87;;;31.50;;
9657;SDS011;4867;48.112;11.622;2024-01-11T09:52:47;46.70;;;30.90;;
9657;SDS011;4867;48.112;11.622;2024-01-11T09:55:16;41.13;;;30.63;;
9657;SDS011;4867;48.112;11.622;2024-01-11T09:57:46;42.47;;;29.93;;
9657;SDS011;4867;48.112;11.622;2024-01-11T10:00:19;46.97;;;32.47;;
9657;SDS011;4867;48.112;11.622;2024-01-11T10:02:49;52.93;;;34.27;;
9657;SDS011;4867;48.112;11.622;2024-01-11T10:05:17;43.13;;;32.33;;
9657;SDS011;4867;48.112;11.622;2024-01-11T10:07:44;48.87;;;32.23;;
9657;SDS011;4867;48.112;11.622;2024-01-11T10:10:14;47.27;;;32.53;;
9657;SDS011;4867;48.112;11.622;2024-01-11T10:12:42;45.70;;;31.40;;
9657;SDS011;4867;48.112;11.622;2024-01-11T10:15:10;49.37;;;33.27;;
9657;SDS011;4867;48.112;11.622;2024-01-11T10:17:41;48.93;;;33.03;;
9657;SDS011;4867;48.112;11.622;2024-01-11T10:20:13;50.87;;;33.33;;
9657;SDS011;4867;48.112;11.622;2024-01-11T10:22:42;53.23;;;34.27;;
9657;SDS011;4867;48.112;11.622;2024-01-11T10:25:11;48.90;;;33.17;;
9657;SDS011;4867;48.112;11.622;2024-01-11T10:27:43;48.83;;;32.63;;
9657;SDS011;4867;48.112;11.622;2024-01-11T10:30:16;49.87;;;33.27;;
9657;SDS011;4867;48.112;11.622;2024-01-11T10:32:44;46.73;;;32.27;;
9657;SDS011;4867;48.112;11.622;2024-01-11T10:35:13;51.90;;;34.17;;
9657;SDS011;4867;48.112;11.622;2024-01-11T10:37:41;47.30;;;31.37;;
9657;SDS011;4867;48.112;11.622;2024-01-11T10:40:10;48.97;;;31.70;;
9657;SDS011;4867;48.112;11.622;2024-01-11T10:42:42;49.20;;;32.00;;
9657;SDS011;4867;48.112;11.622;2024-01-11T10:45:14;44.43;;;30.10;;
9657;SDS011;4867;48.112;11.622;2024-01-11T10:47:47;51.87;;;33.47;;
9657;SDS011;4867;48.112;11.622;2024-01-11T10:50:21;51.63;;;33.03;;
9657;SDS011;4867;48.112;11.622;2024-01-11T10:55:31;60.50;;;34.77;;
9657;SDS011;4867;48.112;11.622;2024-01-11T10:58:00;53.93;;;36.00;;
9657;SDS011;4867;48.112;11.622;2024-01-11T11:00:28;52.50;;;34.27;;
9657;SDS011;4867;48.112;11.622;2024-01-11T11:02:58;53.90;;;34.97;;
9657;SDS011;4867;48.112;11.622;2024-01-11T11:05:28;48.27;;;33.33;;
9657;SDS011;4867;48.112;11.622;2024-01-11T11:07:59;47.90;;;33.33;;
9657;SDS011;4867;48.112;11.622;2024-01-11T11:10:30;48.03;;;33.17;;
9657;SDS011;4867;48.112;11.622;2024-01-11T11:13:00;49.00;;;34.50;;
9657;SDS011;4867;48.112;11.622;2024-01-11T11:15:28;53.10;;;36.10;;
9657;SDS011;4867;48.112;11.622;2024-01-11T11:17:56;53.80;;;36.57;;
9657;SDS011;4867;48.112;11.622;2024-01-11T11:20:24;59.00;;;37.47;;
9657;SDS011;4867;48.112;11.622;2024-01-11T11:23:04;55.23;;;37.23;;
9657;SDS011;4867;48.112;11.622;2024-01-11T11:25:33;55.30;;;35.73;;
9657;SDS011;4867;48.112;11.622;2024-01-11T11:28:01;52.43;;;36.37;;
9657;SDS011;4867;48.112;11.622;2024-01-11T11:30:32;58.20;;;39.37;;
9657;SDS011;4867;48.112;11.622;2024-01-11T11:33:10;59.50;;;40.10;;
9657;SDS011;4867;48.112;11.622;2024-01-11T11:35:42;56.87;;;39.20;;
9657;SDS011;4867;48.112;11.622;2024-01-11T11:38:16;56.17;;;39.33;;
9657;SDS011;4867;48.112;11.622;2024-01-11T11:40:48;65.93;;;40.80;;
9657;SDS011;4867;48.112;11.622;2024-01-11T11:43:21;61.30;;;41.00;;
9657;SDS011;4867;48.112;11.622;2024-01-11T11:45:50;58.97;;;40.13;;
9657;SDS011;4867;48.112;11.622;2024-01-11T11:53:36;65.30;;;42.10;;
9657;SDS011;4867;48.112;11.622;2024-01-11T11:56:04;64.10;;;40.93;;
9657;SDS011;4867;48.112;11.622;2024-01-11T11:58:34;62.63;;;40.70;;
9657;SDS011;4867;48.112;11.622;2024-01-11T12:01:02;64.57;;;41.27;;
9657;SDS011;4867;48.112;11.622;2024-01-11T12:03:32;63.20;;;40.43;;
9657;SDS011;4867;48.112;11.622;2024-01-11T12:06:00;61.53;;;40.47;;
9657;SDS011;4867;48.112;11.622;2024-01-11T12:08:28;59.83;;;39.40;;
9657;SDS011;4867;48.112;11.622;2024-01-11T12:10:56;62.80;;;40.27;;
9657;SDS011;4867;48.112;11.622;2024-01-11T12:13:24;60.47;;;40.13;;
9657;SDS011;4867;48.112;11.622;2024-01-11T12:15:51;66.87;;;41.23;;
9657;SDS011;4867;48.112;11.622;2024-01-11T12:18:19;60.93;;;38.60;;
9657;SDS011;4867;48.112;11.622;2024-01-11T12:20:47;62.50;;;40.60;;
9657;SDS011;4867;48.112;11.622;2024-01-11T12:23:14;58.07;;;37.20;;
9657;SDS011;4867;48.112;11.622;2024-01-11T12:25:42;61.90;;;40.00;;
9657;SDS011;4867;48.112;11.622;2024-01-11T12:28:09;64.80;;;40.30;;
9657;SDS011;4867;48.112;11.622;2024-01-11T12:30:37;63.00;;;39.53;;
9657;SDS011;4867;48.112;11.622;2024-01-11T12:33:05;61.10;;;40.70;;
9657;SDS011;4867;48.112;11.622;2024-01-11T12:35:33;58.93;;;38.17;;
9657;SDS011;4867;48.112;11.622;2024-01-11T12:38:03;60.73;;;39.33;;
9657;SDS011;4867;48.112;11.622;2024-01-11T12:40:33;61.90;;;40.17;;
9657;SDS011;4867;48.112;11.622;2024-01-11T12:43:02;57.37;;;37.13;;
9657;SDS011;4867;48.112;11.622;2024-01-11T12:45:36;57.70;;;37.43;;
9657;SDS011;4867;48.112;11.622;2024-01-11T12:48:08;57.33;;;38.93;;
9657;SDS011;4867;48.112;11.622;2024-01-11T12:50:36;57.07;;;37.07;;
9657;SDS011;4867;48.112;11.622;2024-01-11T12:53:04;55.43;;;37.93;;
9657;SDS011;4867;48.112;11.622;2024-01-11T12:55:33;54.37;;;37.13;;
9657;SDS011;4867;48.112;11.622;2024-01-11T12:58:20;60.57;;;39.53;;
9657;SDS011;4867;48.112;11.622;2024-01-11T13:00:48;54.10;;;36.97;;
9657;SDS011;4867;48.112;11.622;2024-01-11T13:03:16;56.60;;;38.17;;
9657;SDS011;4867;48.112;11.622;2024-01-11T13:05:46;58.13;;;38.93;;
9657;SDS011;4867;48.112;11.622;2024-01-11T13:08:15;58.50;;;39.40;;
9657;SDS011;4867;48.112;11.622;2024-01-11T13:10:47;57.07;;;35.93;;
9657;SDS011;4867;48.112;11.622;2024-01-11T13:13:15;53.83;;;36.13;;
9657;SDS011;4867;48.112;11.622;2024-01-11T13:15:43;54.87;;;37.43;;
9657;SDS011;4867;48.112;11.622;2024-01-11T13:18:12;54.67;;;36.40;;
9657;SDS011;4867;48.112;11.622;2024-01-11T13:20:39;57.67;;;35.73;;
9657;SDS011;4867;48.112;11.622;2024-01-11T13:23:16;57.77;;;38.17;;
9657;SDS011;4867;48.112;11.622;2024-01-11T13:25:48;57.97;;;38.33;;
9657;SDS011;4867;48.112;11.622;2024-01-11T13:28:17;53.13;;;36.83;;
9657;SDS011;4867;48.112;11.622;2024-01-11T13:30:46;52.30;;;35.97;;
9657;SDS011;4867;48.112;11.622;2024-01-11T13:33:16;58.90;;;37.77;;
9657;SDS011;4867;48.112;11.622;2024-01-11T13:35:45;57.07;;;38.10;;
9657;SDS011;4867;48.112;11.622;2024-01-11T13:38:13;54.07;;;37.27;;
9657;SDS011;4867;48.112;11.622;2024-01-11T13:40:40;55.07;;;37.70;;
9657;SDS011;4867;48.112;11.622;2024-01-11T13:43:10;58.80;;;39.23;;
9657;SDS011;4867;48.112;11.622;2024-01-11T13:45:37;61.10;;;40.50;;
9657;SDS011;4867;48.112;11.622;2024-01-11T13:48:05;64.20;;;41.73;;
9657;SDS011;4867;48.112;11.622;2024-01-11T13:50:33;62.40;;;42.70;;
9657;SDS011;4867;48.112;11.622;2024-01-11T13:53:01;60.90;;;40.80;;
9657;SDS011;4867;48.112;11.622;2024-01-11T13:55:30;59.27;;;40.13;;
9657;SDS011;4867;48.112;11.622;2024-01-11T13:58:06;55.80;;;39.60;;
9657;SDS011;4867;48.112;11.622;2024-01-11T14:00:33;62.60;;;41.43;;
9657;SDS011;4867;48.112;11.622;2024-01-11T14:03:01;58.70;;;40.60;;
9657;SDS011;4867;48.112;11.622;2024-01-11T14:05:30;54.13;;;39.90;;
9657;SDS011;4867;48.112;11.622;2024-01-11T14:07:58;61.53;;;42.17;;
9657;SDS011;4867;48.112;11.622;2024-01-11T14:10:27;63.77;;;42.03;;
9657;SDS011;4867;48.112;11.622;2024-01-11T14:12:55;61.33;;;41.97;;
9657;SDS011;4867;48.112;11.622;2024-01-11T14:15:22;68.27;;;44.93;;
9657;SDS011;4867;48.112;11.622;2024-01-11T14:17:51;63.97;;;44.03;;
9657;SDS011;4867;48.112;11.622;2024-01-11T14:20:19;63.47;;;43.70;;
9657;SDS011;4867;48.112;11.622;2024-01-11T14:22:48;61.43;;;43.23;;
9657;SDS011;4867;48.112;11.622;2024-01-11T14:25:17;71.87;;;48.33;;
9657;SDS011;4867;48.112;11.622;2024-01-11T14:27:47;71.90;;;47.57;;
9657;SDS011;4867;48.112;11.622;2024-01-11T14:30:15;67.83;;;47.30;;
9657;SDS011;4867;48.112;11.622;2024-01-11T14:32:42;71.47;;;47.53;;
9657;SDS011;4867;48.112;11.622;2024-01-11T14:35:10;71.50;;;46.67;;
9657;SDS011;4867;48.112;11.622;2024-01-11T14:37:38;71.60;;;48.07;;
9657;SDS011;4867;48.112;11.622;2024-01-11T14:40:07;71.47;;;48.57;;
9657;SDS011;4867;48.112;11.622;2024-01-11T14:42:39;67.00;;;47.10;;
9657;SDS011;4867;48.112;11.622;2024-01-11T14:45:07;71.63;;;46.50;;
9657;SDS011;4867;48.112;11.622;2024-01-11T14:47:35;75.80;;;48.40;;